sensor_id;sensor_type;location;lat;lon;timestamp;P1;durP1;ratioP1;P2;durP2;ratioP2
39896;SDS011;25567;48.276;14.242;2024-02-26T00:02:17;13.63;;;6.10;;
39896;SDS011;25567;48.276;14.242;2024-02-26T00:04:45;15.90;;;6.53;;
39896;SDS011;25567;48.276;14.242;2024-02-26T00:07:12;24.10;;;9.20;;
39896;SDS011;25567;48.276;14.242;2024-02-26T00:09:39;24.58;;;9.55;;
39896;SDS011;25567;48.276;14.242;2024-02-26T00:12:06;27.70;;;10.30;;
39896;SDS011;25567;48.276;14.242;2024-02-26T00:14:33;25.80;;;10.52;;
39896;SDS011;25567;48.276;14.242;2024-02-26T00:17:00;18.15;;;8.88;;
39896;SDS011;25567;48.276;14.242;2024-02-26T00:19:27;20.60;;;8.32;;
39896;SDS011;25567;48.276;14.242;2024-02-26T00:21:54;23.33;;;9.50;;
39896;SDS011;25567;48.276;14.242;2024-02-26T00:24:22;20.15;;;7.97;;
39896;SDS011;25567;48.276;14.242;2024-02-26T00:26:49;14.75;;;6.43;;
39896;SDS011;25567;48.276;14.242;2024-02-26T00:29:20;16.08;;;6.63;;
39896;SDS011;25567;48.276;14.242;2024-02-26T00:31:47;19.85;;;6.03;;
39896;SDS011;25567;48.276;14.242;2024-02-26T00:34:14;11.85;;;4.72;;
39896;SDS011;25567;48.276;14.242;2024-02-26T00:36:41;8.60;;;4.80;;
39896;SDS011;25567;48.276;14.242;2024-02-26T00:39:08;11.18;;;5.22;;
39896;SDS011;25567;48.276;14.242;2024-02-26T00:41:39;14.27;;;5.97;;
39896;SDS011;25567;48.276;14.242;2024-02-26T00:44:07;16.75;;;6.07;;
39896;SDS011;25567;48.276;14.242;2024-02-26T00:46:34;16.58;;;6.50;;
39896;SDS011;25567;48.276;14.242;2024-02-26T00:49:01;16.33;;;5.68;;
39896;SDS011;25567;48.276;14.242;2024-02-26T00:51:28;13.35;;;5.78;;
39896;SDS011;25567;48.276;14.242;2024-02-26T00:53:55;13.35;;;5.63;;
39896;SDS011;25567;48.276;14.242;2024-02-26T00:56:22;16.65;;;6.57;;
39896;SDS011;25567;48.276;14.242;2024-02-26T00:58:49;15.43;;;6.53;;
39896;SDS011;25567;48.276;14.242;2024-02-26T01:01:16;15.68;;;6.95;;
39896;SDS011;25567;48.276;14.242;2024-02-26T01:03:44;14.35;;;6.35;;
39896;SDS011;25567;48.276;14.242;2024-02-26T01:06:11;15.52;;;6.68;;
39896;SDS011;25567;48.276;14.242;2024-02-26T01:08:38;17.33;;;7.25;;
39896;SDS011;25567;48.276;14.242;2024-02-26T01:11:06;18.80;;;7.97;;
39896;SDS011;25567;48.276;14.242;2024-02-26T01:13:34;22.83;;;7.57;;
39896;SDS011;25567;48.276;14.242;2024-02-26T01:16:01;16.77;;;6.68;;
39896;SDS011;25567;48.276;14.242;2024-02-26T01:18:28;18.52;;;7.10;;
39896;SDS011;25567;48.276;14.242;2024-02-26T01:20:56;20.95;;;7.07;;
39896;SDS011;25567;48.276;14.242;2024-02-26T01:23:23;19.63;;;7.78;;
39896;SDS011;25567;48.276;14.242;2024-02-26T01:25:50;16.70;;;7.25;;
39896;SDS011;25567;48.276;14.242;2024-02-26T01:28:18;18.98;;;7.65;;
39896;SDS011;25567;48.276;14.242;2024-02-26T01:30:45;16.55;;;6.85;;
39896;SDS011;25567;48.276;14.242;2024-02-26T01:33:12;18.90;;;8.25;;
39896;SDS011;25567;48.276;14.242;2024-02-26T01:35:39;20.40;;;7.18;;
39896;SDS011;25567;48.276;14.242;2024-02-26T01:38:06;19.20;;;7.75;;
39896;SDS011;25567;48.276;14.242;2024-02-26T01:40:33;14.68;;;7.07;;
39896;SDS011;25567;48.276;14.242;2024-02-26T01:43:01;16.85;;;7.72;;
39896;SDS011;25567;48.276;14.242;2024-02-26T01:45:28;15.63;;;7.35;;
39896;SDS011;25567;48.276;14.242;2024-02-26T01:47:55;24.83;;;9.85;;
39896;SDS011;25567;48.276;14.242;2024-02-26T01:50:23;26.70;;;10.30;;
39896;SDS011;25567;48.276;14.242;2024-02-26T01:52:51;27.42;;;11.25;;
39896;SDS011;25567;48.276;14.242;2024-02-26T01:55:20;37.38;;;14.02;;
39896;SDS011;25567;48.276;14.242;2024-02-26T01:57:50;33.85;;;14.60;;
39896;SDS011;25567;48.276;14.242;2024-02-26T02:00:19;33.03;;;14.15;;
39896;SDS011;25567;48.276;14.242;2024-02-26T02:02:48;34.63;;;14.88;;
39896;SDS011;25567;48.276;14.242;2024-02-26T02:05:16;91.50;;;18.58;;
39896;SDS011;25567;48.276;14.242;2024-02-26T02:07:46;68.53;;;17.65;;
39896;SDS011;25567;48.276;14.242;2024-02-26T02:10:15;41.85;;;16.33;;
39896;SDS011;25567;48.276;14.242;2024-02-26T02:12:45;67.35;;;18.52;;
39896;SDS011;25567;48.276;14.242;2024-02-26T02:15:12;74.97;;;17.42;;
39896;SDS011;25567;48.276;14.242;2024-02-26T02:17:39;60.35;;;18.25;;
39896;SDS011;25567;48.276;14.242;2024-02-26T02:20:09;97.65;;;19.08;;
39896;SDS011;25567;48.276;14.242;2024-02-26T02:26:55;36.53;;;16.35;;
39896;SDS011;25567;48.276;14.242;2024-02-26T02:29:22;57.05;;;17.63;;
39896;SDS011;25567;48.276;14.242;2024-02-26T02:31:50;62.05;;;16.75;;
39896;SDS011;25567;48.276;14.242;2024-02-26T02:34:17;55.10;;;17.08;;
39896;SDS011;25567;48.276;14.242;2024-02-26T02:36:48;63.55;;;16.20;;
39896;SDS011;25567;48.276;14.242;2024-02-26T02:39:16;57.42;;;16.23;;
39896;SDS011;25567;48.276;14.242;2024-02-26T02:41:43;37.65;;;16.85;;
39896;SDS011;25567;48.276;14.242;2024-02-26T02:44:10;81.97;;;17.92;;
39896;SDS011;25567;48.276;14.242;2024-02-26T02:46:37;87.05;;;18.70;;
39896;SDS011;25567;48.276;14.242;2024-02-26T02:49:09;89.47;;;18.75;;
39896;SDS011;25567;48.276;14.242;2024-02-26T02:51:37;114.95;;;19.52;;
39896;SDS011;25567;48.276;14.242;2024-02-26T02:54:04;111.93;;;19.52;;
39896;SDS011;25567;48.276;14.242;2024-02-26T02:56:31;80.38;;;19.23;;
39896;SDS011;25567;48.276;14.242;2024-02-26T02:58:58;117.60;;;20.00;;
39896;SDS011;25567;48.276;14.242;2024-02-26T03:01:25;73.57;;;18.63;;
39896;SDS011;25567;48.276;14.242;2024-02-26T03:03:52;93.35;;;18.27;;
39896;SDS011;25567;48.276;14.242;2024-02-26T03:06:19;83.60;;;18.20;;
39896;SDS011;25567;48.276;14.242;2024-02-26T03:08:47;96.10;;;17.65;;
39896;SDS011;25567;48.276;14.242;2024-02-26T03:11:15;99.35;;;20.20;;
39896;SDS011;25567;48.276;14.242;2024-02-26T03:13:42;105.90;;;19.92;;
39896;SDS011;25567;48.276;14.242;2024-02-26T03:16:09;76.72;;;19.75;;
39896;SDS011;25567;48.276;14.242;2024-02-26T03:18:38;59.85;;;18.70;;
39896;SDS011;25567;48.276;14.242;2024-02-26T03:21:06;82.47;;;17.77;;
39896;SDS011;25567;48.276;14.242;2024-02-26T03:23:33;87.28;;;17.15;;
39896;SDS011;25567;48.276;14.242;2024-02-26T03:26:04;118.30;;;17.52;;
39896;SDS011;25567;48.276;14.242;2024-02-26T03:28:31;65.05;;;16.70;;
39896;SDS011;25567;48.276;14.242;2024-02-26T03:31:00;51.30;;;16.73;;
39896;SDS011;25567;48.276;14.242;2024-02-26T03:33:28;46.72;;;15.20;;
39896;SDS011;25567;48.276;14.242;2024-02-26T03:35:56;58.38;;;15.45;;
39896;SDS011;25567;48.276;14.242;2024-02-26T03:38:23;96.55;;;17.35;;
39896;SDS011;25567;48.276;14.242;2024-02-26T03:40:50;86.28;;;16.73;;
39896;SDS011;25567;48.276;14.242;2024-02-26T03:43:17;112.70;;;18.05;;
39896;SDS011;25567;48.276;14.242;2024-02-26T03:45:44;81.70;;;16.38;;
39896;SDS011;25567;48.276;14.242;2024-02-26T03:48:11;167.13;;;22.05;;
39896;SDS011;25567;48.276;14.242;2024-02-26T03:50:38;125.85;;;20.42;;
39896;SDS011;25567;48.276;14.242;2024-02-26T03:53:05;149.85;;;20.40;;
39896;SDS011;25567;48.276;14.242;2024-02-26T03:55:33;139.73;;;19.63;;
39896;SDS011;25567;48.276;14.242;2024-02-26T03:58:00;132.70;;;19.85;;
39896;SDS011;25567;48.276;14.242;2024-02-26T04:00:27;52.53;;;15.95;;
39896;SDS011;25567;48.276;14.242;2024-02-26T04:02:57;61.33;;;16.60;;
39896;SDS011;25567;48.276;14.242;2024-02-26T04:05:24;77.43;;;16.08;;
39896;SDS011;25567;48.276;14.242;2024-02-26T04:07:51;80.75;;;16.02;;
39896;SDS011;25567;48.276;14.242;2024-02-26T04:10:18;50.13;;;16.02;;
39896;SDS011;25567;48.276;14.242;2024-02-26T04:12:45;52.88;;;16.13;;
39896;SDS011;25567;48.276;14.242;2024-02-26T04:15:13;51.78;;;17.60;;
39896;SDS011;25567;48.276;14.242;2024-02-26T04:17:40;75.25;;;17.30;;
39896;SDS011;25567;48.276;14.242;2024-02-26T04:20:12;55.92;;;17.15;;
39896;SDS011;25567;48.276;14.242;2024-02-26T04:22:41;40.22;;;16.45;;
39896;SDS011;25567;48.276;14.242;2024-02-26T04:25:08;41.38;;;17.30;;
39896;SDS011;25567;48.276;14.242;2024-02-26T04:27:35;56.90;;;17.35;;
39896;SDS011;25567;48.276;14.242;2024-02-26T04:30:02;62.33;;;18.42;;
39896;SDS011;25567;48.276;14.242;2024-02-26T04:32:30;63.60;;;18.33;;
39896;SDS011;25567;48.276;14.242;2024-02-26T04:34:57;102.15;;;17.58;;
39896;SDS011;25567;48.276;14.242;2024-02-26T04:37:24;57.22;;;16.60;;
39896;SDS011;25567;48.276;14.242;2024-02-26T04:39:50;52.25;;;16.30;;
39896;SDS011;25567;48.276;14.242;2024-02-26T04:42:17;69.28;;;16.38;;
39896;SDS011;25567;48.276;14.242;2024-02-26T04:44:44;57.15;;;17.70;;
39896;SDS011;25567;48.276;14.242;2024-02-26T04:47:11;66.28;;;19.88;;
39896;SDS011;25567;48.276;14.242;2024-02-26T04:49:38;52.92;;;18.13;;
39896;SDS011;25567;48.276;14.242;2024-02-26T04:52:05;107.72;;;19.30;;
39896;SDS011;25567;48.276;14.242;2024-02-26T04:54:32;72.35;;;18.10;;
39896;SDS011;25567;48.276;14.242;2024-02-26T04:56:58;53.20;;;16.65;;
39896;SDS011;25567;48.276;14.242;2024-02-26T04:59:25;85.65;;;18.05;;
39896;SDS011;25567;48.276;14.242;2024-02-26T05:01:52;88.07;;;19.17;;
39896;SDS011;25567;48.276;14.242;2024-02-26T05:04:19;90.47;;;17.15;;
39896;SDS011;25567;48.276;14.242;2024-02-26T05:06:46;85.65;;;16.48;;
39896;SDS011;25567;48.276;14.242;2024-02-26T05:09:13;75.93;;;16.20;;
39896;SDS011;25567;48.276;14.242;2024-02-26T05:11:40;120.30;;;19.48;;
39896;SDS011;25567;48.276;14.242;2024-02-26T05:14:08;92.63;;;16.38;;
39896;SDS011;25567;48.276;14.242;2024-02-26T05:16:35;82.43;;;15.57;;
39896;SDS011;25567;48.276;14.242;2024-02-26T05:19:02;82.25;;;14.93;;
39896;SDS011;25567;48.276;14.242;2024-02-26T05:21:29;106.55;;;15.98;;
39896;SDS011;25567;48.276;14.242;2024-02-26T05:23:56;78.82;;;15.35;;
39896;SDS011;25567;48.276;14.242;2024-02-26T05:26:23;58.42;;;14.55;;
39896;SDS011;25567;48.276;14.242;2024-02-26T05:28:50;90.72;;;16.73;;
39896;SDS011;25567;48.276;14.242;2024-02-26T05:31:17;86.18;;;15.95;;
39896;SDS011;25567;48.276;14.242;2024-02-26T05:33:45;82.70;;;17.02;;
39896;SDS011;25567;48.276;14.242;2024-02-26T05:36:17;94.55;;;17.35;;
39896;SDS011;25567;48.276;14.242;2024-02-26T05:38:45;80.50;;;16.48;;
39896;SDS011;25567;48.276;14.242;2024-02-26T05:41:14;78.15;;;17.88;;
39896;SDS011;25567;48.276;14.242;2024-02-26T05:43:42;65.22;;;16.05;;
39896;SDS011;25567;48.276;14.242;2024-02-26T05:46:09;73.80;;;16.73;;
39896;SDS011;25567;48.276;14.242;2024-02-26T05:48:36;66.85;;;17.13;;
39896;SDS011;25567;48.276;14.242;2024-02-26T05:51:03;70.72;;;16.35;;
39896;SDS011;25567;48.276;14.242;2024-02-26T05:53:30;58.60;;;16.35;;
39896;SDS011;25567;48.276;14.242;2024-02-26T05:55:57;44.30;;;16.58;;
39896;SDS011;25567;48.276;14.242;2024-02-26T05:58:24;63.60;;;17.50;;
39896;SDS011;25567;48.276;14.242;2024-02-26T06:00:51;39.10;;;15.70;;
39896;SDS011;25567;48.276;14.242;2024-02-26T06:03:18;113.00;;;18.60;;
39896;SDS011;25567;48.276;14.242;2024-02-26T06:05:45;112.57;;;19.75;;
39896;SDS011;25567;48.276;14.242;2024-02-26T06:08:12;176.75;;;20.88;;
39896;SDS011;25567;48.276;14.242;2024-02-26T06:10:40;136.45;;;19.00;;
39896;SDS011;25567;48.276;14.242;2024-02-26T06:13:07;51.95;;;15.80;;
39896;SDS011;25567;48.276;14.242;2024-02-26T06:15:33;195.27;;;19.98;;
39896;SDS011;25567;48.276;14.242;2024-02-26T06:18:00;155.55;;;17.60;;
39896;SDS011;25567;48.276;14.242;2024-02-26T06:20:27;238.98;;;19.67;;
39896;SDS011;25567;48.276;14.242;2024-02-26T06:22:54;154.57;;;18.20;;
39896;SDS011;25567;48.276;14.242;2024-02-26T06:25:21;98.25;;;18.75;;
39896;SDS011;25567;48.276;14.242;2024-02-26T06:27:47;94.22;;;16.58;;
39896;SDS011;25567;48.276;14.242;2024-02-26T06:30:14;88.22;;;17.00;;
39896;SDS011;25567;48.276;14.242;2024-02-26T06:32:41;112.20;;;18.42;;
39896;SDS011;25567;48.276;14.242;2024-02-26T06:35:08;167.23;;;20.77;;
39896;SDS011;25567;48.276;14.242;2024-02-26T06:37:38;101.57;;;17.33;;
39896;SDS011;25567;48.276;14.242;2024-02-26T06:40:05;102.13;;;17.38;;
39896;SDS011;25567;48.276;14.242;2024-02-26T06:42:32;78.57;;;17.48;;
39896;SDS011;25567;48.276;14.242;2024-02-26T06:45:00;160.02;;;19.42;;
39896;SDS011;25567;48.276;14.242;2024-02-26T06:47:27;134.13;;;17.95;;
39896;SDS011;25567;48.276;14.242;2024-02-26T06:49:54;210.07;;;20.33;;
39896;SDS011;25567;48.276;14.242;2024-02-26T06:52:25;125.75;;;17.52;;
39896;SDS011;25567;48.276;14.242;2024-02-26T06:54:52;176.40;;;19.55;;
39896;SDS011;25567;48.276;14.242;2024-02-26T06:57:19;134.65;;;18.77;;
39896;SDS011;25567;48.276;14.242;2024-02-26T06:59:47;76.78;;;16.15;;
39896;SDS011;25567;48.276;14.242;2024-02-26T07:02:14;58.70;;;14.90;;
39896;SDS011;25567;48.276;14.242;2024-02-26T07:04:42;78.90;;;17.10;;
39896;SDS011;25567;48.276;14.242;2024-02-26T07:07:09;51.53;;;15.30;;
39896;SDS011;25567;48.276;14.242;2024-02-26T07:09:37;80.30;;;16.65;;
39896;SDS011;25567;48.276;14.242;2024-02-26T07:12:04;132.43;;;17.30;;
39896;SDS011;25567;48.276;14.242;2024-02-26T07:14:31;55.63;;;15.48;;
39896;SDS011;25567;48.276;14.242;2024-02-26T07:16:59;96.35;;;15.40;;
39896;SDS011;25567;48.276;14.242;2024-02-26T07:19:26;66.32;;;13.88;;
39896;SDS011;25567;48.276;14.242;2024-02-26T07:21:53;102.78;;;15.25;;
39896;SDS011;25567;48.276;14.242;2024-02-26T07:24:19;67.40;;;13.88;;
39896;SDS011;25567;48.276;14.242;2024-02-26T07:26:46;63.88;;;13.93;;
39896;SDS011;25567;48.276;14.242;2024-02-26T07:29:14;83.13;;;14.27;;
39896;SDS011;25567;48.276;14.242;2024-02-26T07:31:40;115.78;;;17.13;;
39896;SDS011;25567;48.276;14.242;2024-02-26T07:34:07;56.35;;;15.35;;
39896;SDS011;25567;48.276;14.242;2024-02-26T07:36:35;45.47;;;13.30;;
39896;SDS011;25567;48.276;14.242;2024-02-26T07:39:02;51.63;;;14.73;;
39896;SDS011;25567;48.276;14.242;2024-02-26T07:41:29;37.72;;;13.05;;
39896;SDS011;25567;48.276;14.242;2024-02-26T07:43:56;55.42;;;15.13;;
39896;SDS011;25567;48.276;14.242;2024-02-26T07:46:23;70.30;;;14.63;;
39896;SDS011;25567;48.276;14.242;2024-02-26T07:48:50;34.10;;;14.50;;
39896;SDS011;25567;48.276;14.242;2024-02-26T07:51:17;41.42;;;14.40;;
39896;SDS011;25567;48.276;14.242;2024-02-26T07:53:44;32.67;;;14.48;;
39896;SDS011;25567;48.276;14.242;2024-02-26T07:56:11;59.20;;;15.57;;
